Time;durP1;ratioP1;P1;durP2;ratioP2;P2;SDS_P1;SDS_P2;PMS_P1;PMS_P2;Temp;Humidity;BMP_temperature;BMP_pressure;BME280_temperature;BME280_humidity;BME280_pressure;Samples;Min_cycle;Max_cycle;Signal;HPM_P1;HPM_P2
2023/08/17 00:00:13;;;;;;;1.33;1.00;;;;;;;22.97;86.18;99560.78;336696;28;18186;-80
2023/08/17 00:00:25;;;;;;;1.02;0.85;;;;;;;22.94;86.22;99553.94;335547;28;18850;-80
2023/08/17 00:00:37;;;;;;;1.85;0.90;;;;;;;22.95;86.33;99557.41;337954;28;5284;-80
2023/08/17 00:00:49;;;;;;;2.40;0.90;;;;;;;22.96;86.23;99553.81;335360;28;5329;-80
2023/08/17 00:01:01;;;;;;;2.05;0.90;;;;;;;22.94;86.02;99558.41;338626;28;5295;-80
2023/08/17 00:01:13;;;;;;;0.90;0.85;;;;;;;22.91;86.36;99550.69;338619;28;4659;-81
2023/08/17 00:01:25;;;;;;;1.00;0.88;;;;;;;22.89;86.41;99557.94;336694;28;18837;-81
2023/08/17 00:01:37;;;;;;;1.05;0.88;;;;;;;22.88;86.39;99558.94;340773;28;4685;-80
2023/08/17 00:01:49;;;;;;;0.88;0.75;;;;;;;22.88;86.62;99548.34;340300;28;5331;-81
2023/08/17 00:02:02;;;;;;;0.85;0.70;;;;;;;22.86;86.49;99552.91;338008;28;16521;-81
2023/08/17 00:02:14;;;;;;;1.08;0.80;;;;;;;22.86;86.48;99550.28;339562;28;4640;-81
2023/08/17 00:02:26;;;;;;;1.13;0.82;;;;;;;22.86;86.94;99552.91;336782;28;18521;-80
2023/08/17 00:02:38;;;;;;;1.42;0.90;;;;;;;22.85;86.78;99557.38;339401;28;4631;-80
2023/08/17 00:02:50;;;;;;;1.45;0.90;;;;;;;22.85;86.72;99551.22;337064;28;11480;-80
2023/08/17 00:03:03;;;;;;;1.27;0.90;;;;;;;22.85;86.61;99556.53;339873;28;4514;-81
2023/08/17 00:03:15;;;;;;;1.30;0.70;;;;;;;22.85;86.85;99556.53;340082;28;17772;-80
2023/08/17 00:03:27;;;;;;;1.10;0.80;;;;;;;22.87;87.02;99557.25;333083;28;18012;-80
2023/08/17 00:03:39;;;;;;;1.20;0.90;;;;;;;22.86;86.86;99553.75;338978;28;5339;-80
2023/08/17 00:03:51;;;;;;;1.25;1.00;;;;;;;22.88;86.85;99557.13;330956;28;18349;-80
2023/08/17 00:04:03;;;;;;;1.30;1.10;;;;;;;22.88;86.78;99556.28;339165;28;4490;-80
2023/08/17 00:04:16;;;;;;;1.20;1.10;;;;;;;22.88;86.66;99553.63;338878;28;10735;-80
2023/08/17 00:04:28;;;;;;;1.40;1.10;;;;;;;22.87;86.84;99559.88;338065;28;17210;-81
2023/08/17 00:04:40;;;;;;;1.20;0.93;;;;;;;22.87;86.79;99554.59;339044;28;4984;-81
2023/08/17 00:04:52;;;;;;;1.15;0.93;;;;;;;22.88;87.10;99558.94;330929;28;17915;-81
2023/08/17 00:05:06;;;;;;;2.53;1.00;;;;;;;22.88;87.22;99558.94;338962;28;5061;-81
2023/08/17 00:05:18;;;;;;;2.80;1.00;;;;;;;22.88;87.24;99556.28;336229;28;18039;-81
2023/08/17 00:05:32;;;;;;;2.70;1.00;;;;;;;22.89;87.14;99557.94;337502;28;12412;-81
2023/08/17 00:05:44;;;;;;;1.10;0.93;;;;;;;22.91;87.23;99558.66;339752;28;5189;-80
2023/08/17 00:05:56;;;;;;;1.05;0.90;;;;;;;;;;337942;28;6270;-81
2023/08/17 00:06:08;;;;;;;0.80;0.80;;;;;;;22.95;86.93;99557.41;339296;28;4649;-80
2023/08/17 00:06:20;;;;;;;0.90;0.90;;;;;;;22.95;86.72;99554.78;340202;28;4871;-80
2023/08/17 00:06:32;;;;;;;1.00;0.88;;;;;;;22.96;86.75;99553.81;337230;28;5633;-80
2023/08/17 00:06:45;;;;;;;1.02;0.82;;;;;;;22.96;86.58;99548.50;339262;28;4580;-80
2023/08/17 00:06:57;;;;;;;0.80;0.77;;;;;;;22.96;86.58;99559.13;336462;28;15936;-81
2023/08/17 00:07:09;;;;;;;1.50;0.70;;;;;;;22.97;86.29;99555.47;339929;28;4544;-80
2023/08/17 00:07:21;;;;;;;1.52;0.82;;;;;;;22.99;86.29;99555.34;340439;28;5382;-81
2023/08/17 00:07:33;;;;;;;1.58;1.10;;;;;;;22.99;85.93;99558.00;336629;28;18134;-81
2023/08/17 00:07:45;;;;;;;1.80;1.00;;;;;;;22.97;86.01;99559.94;339018;28;4511;-81
2023/08/17 00:08:01;;;;;;;2.60;0.88;;;;;;;22.96;85.88;99559.13;336207;28;18209;-80
2023/08/17 00:08:13;;;;;;;2.58;0.90;;;;;;;22.90;86.13;99554.34;335872;28;12140;-81
2023/08/17 00:08:25;;;;;;;1.55;0.82;;;;;;;22.88;86.37;99556.28;339492;28;4586;-81
2023/08/17 00:08:36;;;;;;;1.98;0.90;;;;;;;22.87;86.53;99554.59;335739;28;4534;-81
2023/08/17 00:08:48;;;;;;;2.10;0.90;;;;;;;22.86;86.48;99552.91;338061;28;5224;-81
2023/08/17 00:09:01;;;;;;;2.20;0.95;;;;;;;22.85;86.65;99561.81;338574;28;4513;-81
2023/08/17 00:09:13;;;;;;;1.52;1.00;;;;;;;22.83;86.44;99555.81;335762;28;12018;-81
2023/08/17 00:09:25;;;;;;;1.50;0.93;;;;;;;22.83;86.76;99559.31;338408;28;5143;-81
2023/08/17 00:09:39;;;;;;;1.25;0.80;;;;;;;22.84;86.43;99565.44;335486;28;5192;-81
2023/08/17 00:09:51;;;;;;;0.98;0.80;;;;;;;22.84;86.06;99560.13;337691;28;4499;-80
2023/08/17 00:10:03;;;;;;;0.80;0.80;;;;;;;22.85;86.66;99561.81;335658;28;15816;-80
2023/08/17 00:10:16;;;;;;;1.10;1.00;;;;;;;22.84;86.39;99560.13;338911;28;5070;-80
2023/08/17 00:10:29;;;;;;;1.20;1.10;;;;;;;22.83;86.52;99558.47;335530;28;17980;-80
2023/08/17 00:10:41;;;;;;;1.10;1.00;;;;;;;22.81;86.93;99560.41;335329;28;4712;-80
2023/08/17 00:10:53;;;;;;;1.05;0.93;;;;;;;22.79;86.74;99563.19;337852;28;10781;-81
2023/08/17 00:11:05;;;;;;;1.00;0.90;;;;;;;22.79;87.00;99563.19;339243;28;5266;-80
2023/08/17 00:11:17;;;;;;;1.00;0.90;;;;;;;22.79;87.01;99560.53;339385;28;5031;-81
2023/08/17 00:11:29;;;;;;;1.05;0.95;;;;;;;22.80;86.92;99564.03;336694;28;16680;-80
2023/08/17 00:11:41;;;;;;;0.80;0.80;;;;;;;22.81;86.94;99563.06;340405;28;4593;-81
2023/08/17 00:11:53;;;;;;;1.10;0.80;;;;;;;22.79;86.90;99562.34;338042;28;11537;-81
2023/08/17 00:12:05;;;;;;;1.63;0.80;;;;;;;22.80;87.05;99561.38;340688;28;4930;-80
2023/08/17 00:12:17;;;;;;;2.13;0.80;;;;;;;22.82;86.66;99567.38;334644;28;4622;-80
2023/08/17 00:12:29;;;;;;;1.55;0.80;;;;;;;22.83;86.64;99561.13;336635;28;17972;-80
2023/08/17 00:12:41;;;;;;;1.80;0.90;;;;;;;22.83;86.61;99563.78;339364;28;4798;-81
2023/08/17 00:12:53;;;;;;;1.35;0.90;;;;;;;22.82;86.64;99557.63;340490;28;4523;-82
2023/08/17 00:13:05;;;;;;;1.17;0.90;;;;;;;22.82;86.71;99562.06;335046;28;18009;-81
2023/08/17 00:13:17;;;;;;;1.60;1.00;;;;;;;22.81;86.86;99563.06;339112;28;4742;-80
2023/08/17 00:13:29;;;;;;;1.73;1.00;;;;;;;22.79;86.81;99557.06;336601;28;4818;-81
2023/08/17 00:13:41;;;;;;;1.45;0.90;;;;;;;22.78;86.62;99558.00;334792;28;4932;-80
2023/08/17 00:13:53;;;;;;;1.40;0.98;;;;;;;22.77;86.73;99557.19;339571;28;5410;-81
2023/08/17 00:14:05;;;;;;;1.10;1.00;;;;;;;22.72;86.56;99552.28;335614;28;18209;-80
2023/08/17 00:14:17;;;;;;;1.10;1.00;;;;;;;22.72;87.02;99568.19;339773;28;4943;-81
2023/08/17 00:14:30;;;;;;;1.20;0.85;;;;;;;22.70;87.17;99559.53;336564;28;18637;-81
2023/08/17 00:14:42;;;;;;;1.00;0.70;;;;;;;22.68;87.21;99563.28;340376;28;5308;-81
2023/08/17 00:14:54;;;;;;;0.95;0.75;;;;;;;22.65;87.27;99560.88;339995;28;18456;-81
2023/08/17 00:15:06;;;;;;;1.00;0.77;;;;;;;22.58;87.71;99563.22;337430;28;17086;-81
2023/08/17 00:15:19;;;;;;;1.40;0.90;;;;;;;22.53;87.62;99560.09;335926;28;5318;-81
2023/08/17 00:15:32;;;;;;;1.10;0.80;;;;;;;22.50;88.13;99557.72;336619;28;18190;-80
2023/08/17 00:15:45;;;;;;;0.95;0.70;;;;;;;22.52;88.04;99558.44;339163;28;5486;-81
2023/08/17 00:15:57;;;;;;;0.90;0.60;;;;;;;22.48;88.04;99559.66;336123;28;18396;-81
2023/08/17 00:16:09;;;;;;;1.73;0.70;;;;;;;22.47;87.93;99552.66;338834;28;5163;-81
2023/08/17 00:16:23;;;;;;;1.80;0.70;;;;;;;22.45;88.23;99560.72;336617;28;18841;-81
2023/08/17 00:16:35;;;;;;;1.45;1.00;;;;;;;22.45;88.35;99557.25;336434;28;17766;-80
2023/08/17 00:16:49;;;;;;;1.95;1.08;;;;;;;22.43;88.21;99553.88;339133;28;4523;-81
2023/08/17 00:17:02;;;;;;;2.00;1.10;;;;;;;22.43;88.08;99561.84;336514;28;17923;-81
2023/08/17 00:17:14;;;;;;;2.42;1.10;;;;;;;22.39;88.55;99560.41;335608;28;12698;-81
2023/08/17 00:17:26;;;;;;;2.15;1.10;;;;;;;22.37;88.78;99559.69;339179;28;4590;-80
2023/08/17 00:17:39;;;;;;;1.20;1.00;;;;;;;22.31;88.81;99564.53;337805;28;5005;-80
2023/08/17 00:17:51;;;;;;;0.80;0.80;;;;;;;22.32;88.80;99560.91;336613;28;18183;-81
2023/08/17 00:18:03;;;;;;;0.70;0.70;;;;;;;22.31;89.12;99559.22;339246;28;4589;-81
2023/08/17 00:18:15;;;;;;;1.05;0.85;;;;;;;22.32;88.88;99560.91;338109;28;5506;-80
2023/08/17 00:18:27;;;;;;;1.40;0.95;;;;;;;22.32;88.68;99555.63;336926;28;18528;-80
2023/08/17 00:18:39;;;;;;;1.77;1.02;;;;;;;22.32;89.23;99558.28;339098;28;4661;-81
2023/08/17 00:18:51;;;;;;;1.55;1.00;;;;;;;22.32;89.02;99560.09;337337;28;18333;-80
2023/08/17 00:19:03;;;;;;;1.50;0.90;;;;;;;22.33;89.14;99562.63;339347;28;5219;-81
2023/08/17 00:19:16;;;;;;;1.67;1.10;;;;;;;22.36;89.07;99560.69;336813;28;4552;-80
2023/08/17 00:19:28;;;;;;;2.47;1.10;;;;;;;22.38;88.53;99556.09;340443;28;4810;-80
2023/08/17 00:19:40;;;;;;;2.00;0.90;;;;;;;22.41;88.79;99558.47;340392;28;4522;-80
2023/08/17 00:19:52;;;;;;;2.00;0.80;;;;;;;22.42;88.73;99561.00;337166;28;4659;-80
2023/08/17 00:20:05;;;;;;;1.13;0.70;;;;;;;22.44;88.58;99560.88;340237;28;5424;-81
2023/08/17 00:20:17;;;;;;;1.00;0.77;;;;;;;22.44;88.34;99560.88;336419;28;16561;-80
2023/08/17 00:20:29;;;;;;;1.00;0.75;;;;;;;22.42;88.34;99561.00;338999;28;5409;-80
2023/08/17 00:20:41;;;;;;;1.40;0.90;;;;;;;22.43;88.40;99564.47;339038;28;4952;-81
2023/08/17 00:20:53;;;;;;;1.30;0.90;;;;;;;22.42;88.46;99566.28;335739;28;18401;-80
2023/08/17 00:21:05;;;;;;;0.85;0.80;;;;;;;22.40;88.55;99562.94;333723;28;4609;-81
2023/08/17 00:21:17;;;;;;;0.70;0.70;;;;;;;22.37;88.75;99562.34;336586;28;4770;-80
2023/08/17 00:21:29;;;;;;;1.10;0.88;;;;;;;22.31;89.01;99566.34;338069;28;4503;-81
2023/08/17 00:21:42;;;;;;;1.13;0.80;;;;;;;22.25;89.17;99565.03;335548;28;4729;-80
2023/08/17 00:21:55;;;;;;;1.40;0.98;;;;;;;22.24;89.10;99563.38;338010;28;4736;-80
2023/08/17 00:22:07;;;;;;;1.58;0.90;;;;;;;22.25;89.12;99562.38;336382;28;11422;-80
2023/08/17 00:22:19;;;;;;;2.00;0.93;;;;;;;22.28;89.04;99569.25;338538;28;5336;-80
2023/08/17 00:22:31;;;;;;;2.10;0.93;;;;;;;22.27;89.40;99565.75;339551;28;5591;-80
2023/08/17 00:22:43;;;;;;;2.35;0.90;;;;;;;22.30;88.84;99568.16;333155;28;10928;-80
2023/08/17 00:22:55;;;;;;;2.72;0.80;;;;;;;22.30;88.84;99565.50;340511;28;4667;-80
2023/08/17 00:23:07;;;;;;;2.75;0.80;;;;;;;22.32;89.00;99560.09;340469;28;5169;-81
2023/08/17 00:23:20;;;;;;;1.50;0.80;;;;;;;22.32;89.19;99565.38;336486;28;16316;-81
2023/08/17 00:23:32;;;;;;;1.13;0.80;;;;;;;22.36;88.79;99565.97;338972;28;4640;-80
2023/08/17 00:23:44;;;;;;;1.25;0.80;;;;;;;22.36;89.03;99565.97;336347;28;18114;-80
2023/08/17 00:23:56;;;;;;;1.30;0.80;;;;;;;22.36;88.57;99566.81;338969;28;5445;-80
2023/08/17 00:24:08;;;;;;;1.52;0.90;;;;;;;22.38;88.71;99569.34;338982;28;4623;-81
2023/08/17 00:24:20;;;;;;;1.25;0.90;;;;;;;22.31;88.97;99571.63;333484;28;17359;-80
2023/08/17 00:24:32;;;;;;;1.25;0.80;;;;;;;22.29;89.20;99563.81;339981;28;4510;-81
2023/08/17 00:24:44;;;;;;;1.25;0.85;;;;;;;22.28;89.11;99570.09;336286;28;11784;-80
2023/08/17 00:24:57;;;;;;;2.00;0.95;;;;;;;22.26;89.00;99563.25;339147;28;5597;-81
2023/08/17 00:25:09;;;;;;;1.98;0.90;;;;;;;22.24;89.52;99560.72;336100;28;9913;-80
2023/08/17 00:25:21;;;;;;;2.05;0.85;;;;;;;22.23;89.10;99564.28;339351;28;5554;-80
2023/08/17 00:25:33;;;;;;;2.13;0.80;;;;;;;22.24;89.60;99573.13;339715;28;4565;-80
2023/08/17 00:25:45;;;;;;;2.10;0.88;;;;;;;22.20;89.51;99569.03;338310;28;12006;-80
2023/08/17 00:25:57;;;;;;;1.63;0.80;;;;;;;22.20;89.58;99567.19;335681;28;4458;-80
2023/08/17 00:26:09;;;;;;;1.80;0.90;;;;;;;22.17;89.58;99571.91;338245;28;5034;-80
2023/08/17 00:26:21;;;;;;;2.00;0.90;;;;;;;22.15;89.70;99569.38;336812;28;18015;-80
2023/08/17 00:26:33;;;;;;;1.83;0.88;;;;;;;22.15;89.76;99572.03;339327;28;4624;-80
2023/08/17 00:26:45;;;;;;;1.90;0.80;;;;;;;22.16;89.67;99571.06;335543;28;18468;-80
2023/08/17 00:26:57;;;;;;;2.05;0.98;;;;;;;22.14;90.08;99570.34;337786;28;5214;-81
2023/08/17 00:27:09;;;;;;;1.42;0.85;;;;;;;22.12;89.72;99570.47;339550;28;4537;-81
2023/08/17 00:27:22;;;;;;;1.38;0.70;;;;;;;22.13;89.78;99566.88;336567;28;17983;-81
2023/08/17 00:27:34;;;;;;;1.00;0.70;;;;;;;22.15;89.84;99569.38;339717;28;4559;-80
2023/08/17 00:27:46;;;;;;;1.13;0.77;;;;;;;22.13;89.71;99568.66;336997;28;18140;-80
2023/08/17 00:27:58;;;;;;;1.30;0.90;;;;;;;22.11;89.80;99574.09;339253;28;4728;-80
2023/08/17 00:28:10;;;;;;;1.38;1.02;;;;;;;22.12;90.26;99569.63;336608;28;7475;-80
2023/08/17 00:28:22;;;;;;;1.40;1.00;;;;;;;22.09;90.31;99575.19;337584;28;5295;-80
2023/08/17 00:28:34;;;;;;;1.17;0.90;;;;;;;22.08;90.51;99581.44;337416;28;4498;-80
2023/08/17 00:28:46;;;;;;;1.17;0.95;;;;;;;22.05;90.36;99573.75;333721;28;16425;-81
2023/08/17 00:28:58;;;;;;;0.93;0.90;;;;;;;22.04;90.81;99569.44;335738;28;18310;-81
2023/08/17 00:29:10;;;;;;;0.93;0.80;;;;;;;22.04;90.34;99577.38;338976;28;4580;-81
2023/08/17 00:29:22;;;;;;;1.23;0.90;;;;;;;21.99;90.79;99577.72;335725;28;17886;-81
2023/08/17 00:29:35;;;;;;;1.15;0.75;;;;;;;21.93;91.25;99579.09;339277;28;4504;-81
2023/08/17 00:29:47;;;;;;;0.98;0.75;;;;;;;21.92;91.33;99579.22;336031;28;19364;-80
2023/08/17 00:29:59;;;;;;;1.13;0.70;;;;;;;21.93;91.03;99575.56;338985;28;4555;-81
2023/08/17 00:30:12;;;;;;;1.10;0.80;;;;;;;21.94;91.35;99579.91;336067;28;18606;-81
2023/08/17 00:30:23;;;;;;;1.08;0.90;;;;;;;21.89;91.89;99580.31;339484;28;4506;-81
2023/08/17 00:30:37;;;;;;;1.08;0.90;;;;;;;21.91;91.78;99578.38;337186;28;11452;-80
2023/08/17 00:30:50;;;;;;;1.20;0.90;;;;;;;21.93;91.66;99581.75;340400;28;4535;-81
2023/08/17 00:31:02;;;;;;;1.27;0.90;;;;;;;21.96;91.29;99577.16;336750;28;18087;-81
2023/08/17 00:31:14;;;;;;;1.13;0.88;;;;;;;21.97;91.57;99576.19;339857;28;4503;-80
2023/08/17 00:31:26;;;;;;;1.10;1.00;;;;;;;21.99;91.28;99574.25;337723;28;18814;-80
2023/08/17 00:31:39;;;;;;;1.20;1.10;;;;;;;22.00;90.99;99575.94;340178;28;5328;-80
2023/08/17 00:31:52;;;;;;;2.35;1.00;;;;;;;22.01;91.41;99574.97;335431;28;5477;-80
2023/08/17 00:32:04;;;;;;;2.10;0.80;;;;;;;22.03;91.29;99565.91;337425;28;18208;-80
2023/08/17 00:32:16;;;;;;;2.25;0.90;;;;;;;22.03;91.18;99571.22;339395;28;5381;-81
2023/08/17 00:32:29;;;;;;;1.15;0.90;;;;;;;22.06;90.76;99575.44;337406;28;18379;-81
2023/08/17 00:32:41;;;;;;;1.05;0.90;;;;;;;22.04;91.11;99572.91;340603;28;4542;-81
2023/08/17 00:32:53;;;;;;;1.33;0.90;;;;;;;22.08;91.14;99578.81;336776;28;19081;-81
2023/08/17 00:33:05;;;;;;;1.40;0.90;;;;;;;22.05;90.94;99573.75;333725;28;4693;-80
2023/08/17 00:33:17;;;;;;;1.48;1.00;;;;;;;22.05;91.41;99573.75;336910;28;4533;-81
2023/08/17 00:33:29;;;;;;;1.27;1.00;;;;;;;22.05;91.33;99579.88;339207;28;4542;-81
2023/08/17 00:33:41;;;;;;;1.08;0.82;;;;;;;22.06;91.24;99576.28;336888;28;9217;-80
2023/08/17 00:33:54;;;;;;;0.80;0.70;;;;;;;22.06;91.17;99573.63;339347;28;5229;-80
2023/08/17 00:34:06;;;;;;;0.90;0.80;;;;;;;22.09;91.29;99570.75;338049;28;4687;-81
2023/08/17 00:34:18;;;;;;;0.77;0.70;;;;;;;22.11;90.64;99567.94;336502;28;16699;-80
2023/08/17 00:34:30;;;;;;;0.85;0.85;;;;;;;22.12;91.23;99570.47;339639;28;4565;-81
2023/08/17 00:34:42;;;;;;;0.95;0.85;;;;;;;22.14;90.95;99578.28;338012;28;5009;-81
2023/08/17 00:34:54;;;;;;;1.30;0.90;;;;;;;22.19;90.71;99577.91;335550;28;13717;-81
2023/08/17 00:35:07;;;;;;;1.45;0.70;;;;;;;22.20;90.73;99572.50;338757;28;5405;-81
2023/08/17 00:35:19;;;;;;;1.20;0.80;;;;;;;22.22;90.37;99569.72;335647;28;18244;-80
2023/08/17 00:35:32;;;;;;;0.95;0.73;;;;;;;22.23;90.14;99574.88;339486;28;4562;-81
2023/08/17 00:35:45;;;;;;;0.77;0.77;;;;;;;22.25;90.23;99569.50;336456;28;18270;-80
2023/08/17 00:35:57;;;;;;;0.90;0.85;;;;;;;22.25;90.13;99575.63;336765;28;4689;-81
2023/08/17 00:36:09;;;;;;;1.10;0.90;;;;;;;22.24;90.02;99573.97;333883;28;18478;-80
2023/08/17 00:36:21;;;;;;;1.10;0.90;;;;;;;22.24;90.48;99573.13;333221;28;4835;-80
2023/08/17 00:36:33;;;;;;;1.13;0.90;;;;;;;22.24;90.21;99573.97;337610;28;4678;-80
2023/08/17 00:36:45;;;;;;;1.00;0.85;;;;;;;22.24;90.09;99581.91;334049;28;18749;-80
2023/08/17 00:36:57;;;;;;;0.80;0.80;;;;;;;22.24;90.03;99570.47;337304;28;4570;-80
2023/08/17 00:37:09;;;;;;;0.95;0.70;;;;;;;22.23;89.97;99574.88;334430;28;18259;-80
2023/08/17 00:37:21;;;;;;;1.10;0.80;;;;;;;22.21;90.01;99578.63;337743;28;4556;-80
2023/08/17 00:37:33;;;;;;;1.10;0.70;;;;;;;22.23;89.69;99576.69;338102;28;4690;-80
2023/08/17 00:37:45;;;;;;;0.90;0.77;;;;;;;22.23;89.67;99580.16;334964;28;19681;-80
2023/08/17 00:37:57;;;;;;;1.17;0.80;;;;;;;22.20;90.02;99577.78;338675;28;4556;-81
2023/08/17 00:38:09;;;;;;;1.85;0.80;;;;;;;22.22;89.80;99575.03;335820;28;18487;-80
2023/08/17 00:38:21;;;;;;;2.10;0.90;;;;;;;22.23;89.83;99571.41;339296;28;4543;-80
2023/08/17 00:38:33;;;;;;;1.13;0.88;;;;;;;22.23;89.79;99580.16;339409;28;5474;-81
2023/08/17 00:38:45;;;;;;;1.27;1.00;;;;;;;22.23;89.79;99579.34;336168;28;18248;-80
2023/08/17 00:38:57;;;;;;;1.40;1.00;;;;;;;22.21;89.65;99574.16;339308;28;4535;-81
2023/08/17 00:39:09;;;;;;;1.80;1.00;;;;;;;22.22;89.87;99578.50;339194;28;4726;-81
2023/08/17 00:39:21;;;;;;;1.90;1.05;;;;;;;22.24;89.87;99576.59;335039;28;18214;-80
2023/08/17 00:39:33;;;;;;;1.55;1.00;;;;;;;22.23;89.66;99572.22;338182;28;4636;-80
2023/08/17 00:39:45;;;;;;;0.98;0.85;;;;;;;22.21;89.79;99578.63;335591;28;18621;-80
2023/08/17 00:39:57;;;;;;;0.98;0.88;;;;;;;22.16;90.27;99571.06;339213;28;4655;-81
2023/08/17 00:40:10;;;;;;;0.82;0.80;;;;;;;22.16;90.27;99572.88;336047;28;12435;-80
2023/08/17 00:40:22;;;;;;;1.17;0.82;;;;;;;22.15;90.04;99569.38;340563;28;4580;-80
2023/08/17 00:40:34;;;;;;;1.40;0.90;;;;;;;22.16;89.93;99575.53;340522;28;5344;-80
2023/08/17 00:40:47;;;;;;;1.27;0.85;;;;;;;22.18;89.73;99574.44;333323;28;18814;-80
2023/08/17 00:40:59;;;;;;;1.10;0.80;;;;;;;22.18;89.89;99574.44;339469;28;17954;-81
2023/08/17 00:41:11;;;;;;;1.90;0.80;;;;;;;22.18;90.16;99571.78;337360;28;11941;-80
2023/08/17 00:41:23;;;;;;;2.17;0.85;;;;;;;22.17;90.03;99566.59;339066;28;4595;-80
2023/08/17 00:41:35;;;;;;;2.50;1.00;;;;;;;22.19;90.07;99567.31;338903;28;5418;-80
2023/08/17 00:41:47;;;;;;;1.52;1.00;;;;;;;22.19;90.35;99573.44;336702;28;17936;-80
2023/08/17 00:41:59;;;;;;;1.48;0.90;;;;;;;22.19;90.77;99564.69;340018;28;4505;-81
2023/08/17 00:42:11;;;;;;;1.63;0.90;;;;;;;22.20;90.62;99564.56;338465;28;11960;-81
2023/08/17 00:42:23;;;;;;;1.80;1.00;;;;;;;22.21;90.70;99568.88;336193;28;18157;-80
2023/08/17 00:42:35;;;;;;;1.42;1.02;;;;;;;22.22;90.55;99565.28;339817;28;4864;-81
2023/08/17 00:42:47;;;;;;;1.13;0.82;;;;;;;22.24;90.02;99573.97;336956;28;6139;-80
2023/08/17 00:43:01;;;;;;;0.80;0.70;;;;;;;22.21;90.34;99563.56;338610;28;4766;-81
2023/08/17 00:43:14;;;;;;;0.90;0.80;;;;;;;22.19;90.19;99568.16;335004;28;19230;-81
2023/08/17 00:43:26;;;;;;;1.00;0.85;;;;;;;22.21;90.78;99571.50;337707;28;4559;-80
2023/08/17 00:43:38;;;;;;;2.10;1.00;;;;;;;22.21;90.39;99568.88;335529;28;19418;-80
2023/08/17 00:43:50;;;;;;;2.20;1.10;;;;;;;22.23;90.55;99572.22;333854;28;4700;-80
2023/08/17 00:44:03;;;;;;;1.50;1.00;;;;;;;22.25;90.45;99567.69;336158;28;19425;-80
2023/08/17 00:44:15;;;;;;;0.85;0.85;;;;;;;22.28;90.04;99564.78;338566;28;5474;-80
2023/08/17 00:44:27;;;;;;;0.75;0.73;;;;;;;22.28;89.86;99564.78;335826;28;4795;-80
2023/08/17 00:44:39;;;;;;;0.90;0.80;;;;;;;22.30;90.05;99564.66;337350;28;5590;-80
2023/08/17 00:44:50;;;;;;;1.00;0.80;;;;;;;22.31;90.07;99569.81;338118;28;5431;-80
2023/08/17 00:45:03;;;;;;;1.10;0.82;;;;;;;22.34;89.77;99569.56;335855;28;18326;-80
2023/08/17 00:45:15;;;;;;;1.20;0.70;;;;;;;22.37;89.90;99567.63;338517;28;4555;-80
2023/08/17 00:45:27;;;;;;;1.10;0.73;;;;;;;22.37;89.69;99562.34;338382;28;4646;-80
2023/08/17 00:45:40;;;;;;;1.20;0.80;;;;;;;22.37;89.77;99567.63;335685;28;18591;-80
2023/08/17 00:45:53;;;;;;;2.08;0.98;;;;;;;22.37;89.53;99575.59;334983;28;12980;-80
2023/08/17 00:46:05;;;;;;;2.28;0.95;;;;;;;22.39;89.46;99565.69;338581;28;5154;-81
2023/08/17 00:46:20;;;;;;;1.90;0.98;;;;;;;22.40;89.78;99570.06;339250;28;4551;-81
2023/08/17 00:46:32;;;;;;;1.27;0.80;;;;;;;22.42;89.50;99570.75;336258;28;17590;-80
2023/08/17 00:46:45;;;;;;;1.13;0.82;;;;;;;22.42;89.02;99568.94;336285;28;19486;-80
2023/08/17 00:46:57;;;;;;;1.20;0.90;;;;;;;22.44;89.19;99568.81;334678;28;4601;-81
2023/08/17 00:47:09;;;;;;;1.23;1.00;;;;;;;22.44;88.78;99569.66;336230;28;12201;-80
2023/08/17 00:47:21;;;;;;;1.13;0.90;;;;;;;22.44;89.06;99563.53;338805;28;4582;-81
2023/08/17 00:47:33;;;;;;;1.50;0.85;;;;;;;22.43;88.74;99567.13;339218;28;4500;-81
2023/08/17 00:47:45;;;;;;;1.42;0.90;;;;;;;22.43;88.98;99573.25;336085;28;17906;-81
2023/08/17 00:47:58;;;;;;;1.58;0.95;;;;;;;22.43;88.57;99567.13;338849;28;4634;-81
2023/08/17 00:48:11;;;;;;;1.35;0.93;;;;;;;22.43;88.38;99567.13;335230;28;18630;-81
2023/08/17 00:48:24;;;;;;;1.35;0.90;;;;;;;22.43;88.75;99572.44;338871;28;4707;-80
2023/08/17 00:48:36;;;;;;;1.95;1.05;;;;;;;22.40;88.54;99562.09;336641;28;17859;-80
2023/08/17 00:48:48;;;;;;;2.20;0.93;;;;;;;22.39;88.57;99565.69;339057;28;4489;-82
2023/08/17 00:49:00;;;;;;;2.53;0.85;;;;;;;22.38;88.58;99564.03;336170;28;19020;-81
2023/08/17 00:49:12;;;;;;;2.38;0.90;;;;;;;22.35;88.76;99565.09;338363;28;5416;-81
2023/08/17 00:49:25;;;;;;;1.95;0.90;;;;;;;22.33;88.93;99562.63;336136;28;18176;-80
2023/08/17 00:49:37;;;;;;;1.45;0.90;;;;;;;22.32;88.79;99560.91;338901;28;5189;-80
2023/08/17 00:49:49;;;;;;;1.40;0.80;;;;;;;22.31;88.85;99559.22;338909;28;4677;-81
2023/08/17 00:50:02;;;;;;;1.17;0.80;;;;;;;22.30;88.81;99562.03;335562;28;18187;-81
2023/08/17 00:50:15;;;;;;;1.80;0.80;;;;;;;22.30;89.35;99557.56;338690;28;4582;-80
2023/08/17 00:50:28;;;;;;;1.70;0.80;;;;;;;22.30;89.12;99564.66;336445;28;18341;-80
2023/08/17 00:50:41;;;;;;;0.80;0.75;;;;;;;22.30;89.44;99562.84;335842;28;19232;-81
2023/08/17 00:50:53;;;;;;;1.27;0.80;;;;;;;22.31;89.46;99563.69;339340;28;4581;-80
2023/08/17 00:51:05;;;;;;;1.30;0.80;;;;;;;22.30;89.19;99560.22;335532;28;19209;-80
2023/08/17 00:51:20;;;;;;;1.23;0.80;;;;;;;22.30;89.48;99562.03;338577;28;5448;-81
2023/08/17 00:51:33;;;;;;;0.73;0.73;;;;;;;22.29;89.58;99558.50;332541;28;18891;-81
2023/08/17 00:51:45;;;;;;;0.75;0.65;;;;;;;22.27;89.04;99557.78;339261;28;4608;-80
2023/08/17 00:51:57;;;;;;;1.05;0.70;;;;;;;22.27;89.28;99557.78;336279;28;18148;-81
2023/08/17 00:52:10;;;;;;;1.63;0.90;;;;;;;22.29;89.42;99561.16;339238;28;4468;-81
2023/08/17 00:52:23;;;;;;;1.55;0.90;;;;;;;22.29;89.05;99560.31;336921;28;16353;-80
2023/08/17 00:52:35;;;;;;;1.35;0.90;;;;;;;22.27;89.27;99563.09;340612;28;4499;-80
2023/08/17 00:52:47;;;;;;;1.00;0.90;;;;;;;22.27;89.24;99563.09;337200;28;18192;-80
2023/08/17 00:53:00;;;;;;;1.33;1.02;;;;;;;22.26;89.19;99560.59;338160;28;4524;-81
2023/08/17 00:53:13;;;;;;;1.35;1.00;;;;;;;22.22;89.09;99565.28;333164;28;4639;-80
2023/08/17 00:53:31;;;;;;;1.38;0.82;;;;;;;22.24;89.07;99552.78;339358;28;4606;-81
2023/08/17 00:53:44;;;;;;;1.42;0.90;;;;;;;22.24;89.24;99563.38;335134;28;17992;-80
2023/08/17 00:53:58;;;;;;;1.30;1.00;;;;;;;22.23;89.16;99553.69;337833;28;4696;-80
2023/08/17 00:54:11;;;;;;;1.10;0.82;;;;;;;22.23;89.42;99556.34;333667;28;19364;-80
2023/08/17 00:54:27;;;;;;;1.40;0.90;;;;;;;22.19;89.77;99560.22;334833;28;16767;-81
2023/08/17 00:54:39;;;;;;;1.70;0.98;;;;;;;22.18;89.85;99563.84;335020;28;17991;-80
2023/08/17 00:54:51;;;;;;;1.73;0.90;;;;;;;22.19;89.51;99560.22;337494;28;4689;-80
2023/08/17 00:55:05;;;;;;;1.27;0.80;;;;;;;22.20;89.27;99561.91;332450;28;19000;-80
2023/08/17 00:55:17;;;;;;;1.85;0.80;;;;;;;22.20;89.63;99561.91;334576;28;11049;-80
2023/08/17 00:55:29;;;;;;;2.25;0.93;;;;;;;22.21;89.54;99562.75;338965;28;5207;-80
2023/08/17 00:55:42;;;;;;;1.60;0.98;;;;;;;22.22;89.35;99559.97;339121;28;4531;-80
2023/08/17 00:55:55;;;;;;;1.25;0.90;;;;;;;22.22;89.26;99559.97;336356;28;18182;-80
2023/08/17 00:56:07;;;;;;;0.80;0.80;;;;;;;22.22;89.61;99557.31;338826;28;4555;-80
2023/08/17 00:56:21;;;;;;;1.00;0.90;;;;;;;22.20;89.30;99556.63;334961;28;18036;-80
2023/08/17 00:56:33;;;;;;;1.20;1.00;;;;;;;22.12;90.11;99559.06;334950;28;10299;-80
2023/08/17 00:56:45;;;;;;;1.08;0.93;;;;;;;22.12;89.88;99559.88;335939;28;4619;-80
2023/08/17 00:56:57;;;;;;;1.13;0.80;;;;;;;22.11;89.95;99557.34;336182;28;5432;-81
2023/08/17 00:57:10;;;;;;;1.42;0.90;;;;;;;22.13;89.71;99566.00;332632;28;18111;-80
2023/08/17 00:57:23;;;;;;;1.65;1.00;;;;;;;22.12;89.81;99562.53;337215;28;4664;-80
2023/08/17 00:57:36;;;;;;;1.05;0.82;;;;;;;22.13;89.80;99560.72;329388;28;17879;-80
2023/08/17 00:57:48;;;;;;;1.33;0.90;;;;;;;22.15;89.76;99561.44;336661;28;4614;-80
2023/08/17 00:58:00;;;;;;;1.30;0.90;;;;;;;22.17;89.68;99559.50;333825;28;18046;-80
2023/08/17 00:58:14;;;;;;;1.65;1.02;;;;;;;22.18;89.81;99558.53;337161;28;4563;-80
2023/08/17 00:58:27;;;;;;;1.30;1.00;;;;;;;22.19;89.58;99560.22;335236;28;17608;-80
2023/08/17 00:58:39;;;;;;;1.75;1.00;;;;;;;22.16;89.59;99554.34;336058;28;12097;-80
2023/08/17 00:58:52;;;;;;;1.85;0.90;;;;;;;22.16;89.66;99557.00;339996;28;5383;-80
2023/08/17 00:59:04;;;;;;;1.73;0.90;;;;;;;22.16;89.92;99557.00;334642;28;5533;-80
2023/08/17 00:59:16;;;;;;;1.00;0.90;;;;;;;22.15;89.86;99564.06;339913;28;4504;-80